KAUS/AUS METAR and TAF weather

Enter ICAO airport designator
Station Type Date Time Source
KAUS METAR 2018/04/20 08:53 UTC NOAA

KAUS 200853Z 02004KT 10SM SCT200 BKN250 11/07 A3019 RMK AO2 SLP219 T01110067 56016


Station Type Date Time Source
KAUS Decoded METAR 2018/04/20 08:53 UTC NOAA

AUSTIN-BERGSTROM INTERNATIONAL AIRPORT, TX, United States (KAUS) 30-11N 097-41W 172M
Apr 20, 2018 - 04:53 AM EDT / 2018.04.20 0853 UTC
Wind: from the NNE (020 degrees) at 5 MPH (4 KT):0
Visibility: 10 mile(s):0
Sky conditions: mostly cloudy
Temperature: 52.0 F (11.1 C)
Dew Point: 44.1 F (6.7 C)
Relative Humidity: 74%
Pressure (altimeter): 30.19 in. Hg (1022 hPa)
Pressure tendency: 0.05 inches (1.6 hPa) lower than three hours ago
ob: KAUS 200853Z 02004KT 10SM SCT200 BKN250 11/07 A3019 RMK AO2 SLP219 T01110067 56016
cycle: 9

Station Type Date Time Source
KAUS TAF 2018/04/20 06:45 UTC NOAA

TAF KAUS 200542Z 2006/2112 04006KT P6SM BKN200
FM201400 08012KT P6SM BKN060
FM202100 14013KT P6SM SCT060
FM210600 14008KT P6SM BKN020


Example: see airport list